sensor_id;sensor_type;location;lat;lon;timestamp;P1;durP1;ratioP1;P2;durP2;ratioP2
33844;SDS011;20145;43.118;25.694;2022-09-02T00:01:43;13.82;;;12.40;;
33844;SDS011;20145;43.118;25.694;2022-09-02T00:04:13;18.67;;;11.75;;
33844;SDS011;20145;43.118;25.694;2022-09-02T00:06:41;14.23;;;12.73;;
33844;SDS011;20145;43.118;25.694;2022-09-02T00:09:09;18.55;;;13.27;;
33844;SDS011;20145;43.118;25.694;2022-09-02T00:11:36;13.65;;;11.82;;
33844;SDS011;20145;43.118;25.694;2022-09-02T00:14:07;14.20;;;11.60;;
33844;SDS011;20145;43.118;25.694;2022-09-02T00:16:37;14.00;;;11.55;;
33844;SDS011;20145;43.118;25.694;2022-09-02T00:19:05;17.27;;;11.82;;
33844;SDS011;20145;43.118;25.694;2022-09-02T00:21:33;19.88;;;11.45;;
33844;SDS011;20145;43.118;25.694;2022-09-02T00:23:59;15.73;;;10.60;;
33844;SDS011;20145;43.118;25.694;2022-09-02T00:26:26;16.17;;;11.10;;
33844;SDS011;20145;43.118;25.694;2022-09-02T00:28:52;14.40;;;10.90;;
33844;SDS011;20145;43.118;25.694;2022-09-02T00:31:18;12.95;;;9.82;;
33844;SDS011;20145;43.118;25.694;2022-09-02T00:33:44;18.63;;;9.90;;
33844;SDS011;20145;43.118;25.694;2022-09-02T00:36:10;17.27;;;10.40;;
33844;SDS011;20145;43.118;25.694;2022-09-02T00:38:36;12.98;;;10.40;;
33844;SDS011;20145;43.118;25.694;2022-09-02T00:41:05;14.88;;;10.63;;
33844;SDS011;20145;43.118;25.694;2022-09-02T00:46:16;14.15;;;9.88;;
33844;SDS011;20145;43.118;25.694;2022-09-02T00:51:19;12.57;;;9.68;;
33844;SDS011;20145;43.118;25.694;2022-09-02T00:53:45;17.98;;;10.48;;
33844;SDS011;20145;43.118;25.694;2022-09-02T00:56:14;12.52;;;11.10;;
33844;SDS011;20145;43.118;25.694;2022-09-02T00:58:47;15.98;;;11.18;;
33844;SDS011;20145;43.118;25.694;2022-09-02T01:01:16;20.85;;;11.45;;
33844;SDS011;20145;43.118;25.694;2022-09-02T01:03:42;15.77;;;11.45;;
33844;SDS011;20145;43.118;25.694;2022-09-02T01:06:11;20.77;;;11.93;;
33844;SDS011;20145;43.118;25.694;2022-09-02T01:08:39;14.48;;;11.50;;
33844;SDS011;20145;43.118;25.694;2022-09-02T01:11:10;19.95;;;11.93;;
33844;SDS011;20145;43.118;25.694;2022-09-02T01:13:38;19.08;;;11.88;;
33844;SDS011;20145;43.118;25.694;2022-09-02T01:16:17;15.80;;;10.68;;
33844;SDS011;20145;43.118;25.694;2022-09-02T01:18:49;17.85;;;10.15;;
33844;SDS011;20145;43.118;25.694;2022-09-02T01:21:16;13.57;;;9.48;;
33844;SDS011;20145;43.118;25.694;2022-09-02T01:23:43;13.38;;;8.98;;
33844;SDS011;20145;43.118;25.694;2022-09-02T01:26:11;11.23;;;9.55;;
33844;SDS011;20145;43.118;25.694;2022-09-02T01:28:37;12.98;;;9.30;;
33844;SDS011;20145;43.118;25.694;2022-09-02T01:31:03;12.63;;;9.23;;
33844;SDS011;20145;43.118;25.694;2022-09-02T01:33:29;11.63;;;9.32;;
33844;SDS011;20145;43.118;25.694;2022-09-02T01:35:55;11.48;;;9.15;;
33844;SDS011;20145;43.118;25.694;2022-09-02T01:38:23;17.90;;;9.70;;
33844;SDS011;20145;43.118;25.694;2022-09-02T01:40:49;11.40;;;10.05;;
33844;SDS011;20145;43.118;25.694;2022-09-02T01:43:18;11.57;;;9.75;;
33844;SDS011;20145;43.118;25.694;2022-09-02T01:45:46;14.88;;;10.23;;
33844;SDS011;20145;43.118;25.694;2022-09-02T01:48:13;11.48;;;8.98;;
33844;SDS011;20145;43.118;25.694;2022-09-02T01:50:40;13.27;;;9.30;;
33844;SDS011;20145;43.118;25.694;2022-09-02T01:53:09;14.93;;;9.10;;
33844;SDS011;20145;43.118;25.694;2022-09-02T01:55:34;11.85;;;9.45;;
33844;SDS011;20145;43.118;25.694;2022-09-02T01:58:00;10.10;;;9.10;;
33844;SDS011;20145;43.118;25.694;2022-09-02T02:00:26;11.90;;;9.38;;
33844;SDS011;20145;43.118;25.694;2022-09-02T02:02:53;12.60;;;9.07;;
33844;SDS011;20145;43.118;25.694;2022-09-02T02:05:18;14.68;;;8.93;;
33844;SDS011;20145;43.118;25.694;2022-09-02T02:07:44;12.88;;;8.65;;
33844;SDS011;20145;43.118;25.694;2022-09-02T02:10:10;13.23;;;9.45;;
33844;SDS011;20145;43.118;25.694;2022-09-02T02:12:38;14.13;;;8.98;;
33844;SDS011;20145;43.118;25.694;2022-09-02T02:15:04;15.85;;;9.57;;
33844;SDS011;20145;43.118;25.694;2022-09-02T02:17:32;13.20;;;9.13;;
33844;SDS011;20145;43.118;25.694;2022-09-02T02:19:58;14.52;;;8.77;;
33844;SDS011;20145;43.118;25.694;2022-09-02T02:22:24;9.95;;;8.52;;
33844;SDS011;20145;43.118;25.694;2022-09-02T02:24:50;10.93;;;9.43;;
33844;SDS011;20145;43.118;25.694;2022-09-02T02:27:16;14.10;;;8.75;;
33844;SDS011;20145;43.118;25.694;2022-09-02T02:29:41;11.48;;;9.43;;
33844;SDS011;20145;43.118;25.694;2022-09-02T02:32:07;12.73;;;9.68;;
33844;SDS011;20145;43.118;25.694;2022-09-02T02:34:33;11.27;;;9.63;;
33844;SDS011;20145;43.118;25.694;2022-09-02T02:36:59;10.40;;;9.35;;
33844;SDS011;20145;43.118;25.694;2022-09-02T02:39:25;16.80;;;10.68;;
33844;SDS011;20145;43.118;25.694;2022-09-02T02:41:51;12.82;;;9.68;;
33844;SDS011;20145;43.118;25.694;2022-09-02T02:44:16;12.82;;;10.32;;
33844;SDS011;20145;43.118;25.694;2022-09-02T02:46:42;13.10;;;9.80;;
33844;SDS011;20145;43.118;25.694;2022-09-02T02:49:08;11.65;;;9.52;;
33844;SDS011;20145;43.118;25.694;2022-09-02T02:51:34;13.60;;;9.70;;
33844;SDS011;20145;43.118;25.694;2022-09-02T02:54:01;13.45;;;9.35;;
33844;SDS011;20145;43.118;25.694;2022-09-02T02:56:28;14.30;;;8.48;;
33844;SDS011;20145;43.118;25.694;2022-09-02T02:58:54;13.18;;;9.25;;
33844;SDS011;20145;43.118;25.694;2022-09-02T03:01:21;14.95;;;9.68;;
33844;SDS011;20145;43.118;25.694;2022-09-02T03:03:47;10.63;;;9.57;;
33844;SDS011;20145;43.118;25.694;2022-09-02T03:06:13;13.18;;;10.13;;
33844;SDS011;20145;43.118;25.694;2022-09-02T03:08:40;14.77;;;9.65;;
33844;SDS011;20145;43.118;25.694;2022-09-02T03:11:05;10.40;;;9.25;;
33844;SDS011;20145;43.118;25.694;2022-09-02T03:13:31;13.95;;;9.63;;
33844;SDS011;20145;43.118;25.694;2022-09-02T03:15:58;14.75;;;9.43;;
33844;SDS011;20145;43.118;25.694;2022-09-02T03:18:24;11.43;;;9.25;;
33844;SDS011;20145;43.118;25.694;2022-09-02T03:20:50;14.90;;;9.68;;
33844;SDS011;20145;43.118;25.694;2022-09-02T03:23:16;14.48;;;9.60;;
33844;SDS011;20145;43.118;25.694;2022-09-02T03:25:43;13.98;;;10.07;;
33844;SDS011;20145;43.118;25.694;2022-09-02T03:28:10;11.43;;;9.60;;
33844;SDS011;20145;43.118;25.694;2022-09-02T03:30:36;15.48;;;9.93;;
33844;SDS011;20145;43.118;25.694;2022-09-02T03:33:04;13.93;;;10.27;;
33844;SDS011;20145;43.118;25.694;2022-09-02T03:35:30;14.13;;;9.57;;
33844;SDS011;20145;43.118;25.694;2022-09-02T03:37:57;16.63;;;9.45;;
33844;SDS011;20145;43.118;25.694;2022-09-02T03:40:25;11.35;;;10.15;;
33844;SDS011;20145;43.118;25.694;2022-09-02T03:42:52;12.02;;;9.05;;
33844;SDS011;20145;43.118;25.694;2022-09-02T03:45:18;10.10;;;9.20;;
33844;SDS011;20145;43.118;25.694;2022-09-02T03:47:45;14.07;;;8.20;;
33844;SDS011;20145;43.118;25.694;2022-09-02T03:50:22;11.90;;;9.23;;
33844;SDS011;20145;43.118;25.694;2022-09-02T03:52:51;12.88;;;8.48;;
33844;SDS011;20145;43.118;25.694;2022-09-02T03:55:16;11.88;;;9.23;;
33844;SDS011;20145;43.118;25.694;2022-09-02T03:57:43;15.00;;;9.48;;
33844;SDS011;20145;43.118;25.694;2022-09-02T04:00:10;13.18;;;9.05;;
33844;SDS011;20145;43.118;25.694;2022-09-02T04:02:36;12.55;;;8.82;;
33844;SDS011;20145;43.118;25.694;2022-09-02T04:05:02;10.95;;;8.30;;
33844;SDS011;20145;43.118;25.694;2022-09-02T04:07:28;13.52;;;8.13;;
33844;SDS011;20145;43.118;25.694;2022-09-02T04:09:55;10.32;;;8.00;;
33844;SDS011;20145;43.118;25.694;2022-09-02T04:12:21;14.30;;;9.15;;
33844;SDS011;20145;43.118;25.694;2022-09-02T04:14:47;11.50;;;8.65;;
33844;SDS011;20145;43.118;25.694;2022-09-02T04:17:12;8.93;;;7.78;;
33844;SDS011;20145;43.118;25.694;2022-09-02T04:19:38;9.85;;;8.52;;
33844;SDS011;20145;43.118;25.694;2022-09-02T04:22:05;9.30;;;8.27;;
33844;SDS011;20145;43.118;25.694;2022-09-02T04:24:32;9.25;;;8.30;;
33844;SDS011;20145;43.118;25.694;2022-09-02T04:26:59;14.70;;;8.68;;
33844;SDS011;20145;43.118;25.694;2022-09-02T04:29:25;10.23;;;8.02;;
33844;SDS011;20145;43.118;25.694;2022-09-02T04:31:50;11.85;;;9.00;;
33844;SDS011;20145;43.118;25.694;2022-09-02T04:34:17;12.23;;;8.30;;
33844;SDS011;20145;43.118;25.694;2022-09-02T04:36:42;11.13;;;7.35;;
33844;SDS011;20145;43.118;25.694;2022-09-02T04:39:08;11.40;;;7.90;;
33844;SDS011;20145;43.118;25.694;2022-09-02T04:41:34;11.40;;;8.95;;
33844;SDS011;20145;43.118;25.694;2022-09-02T04:44:00;9.35;;;8.02;;
33844;SDS011;20145;43.118;25.694;2022-09-02T04:46:26;9.13;;;6.95;;
33844;SDS011;20145;43.118;25.694;2022-09-02T04:48:53;7.93;;;6.47;;
33844;SDS011;20145;43.118;25.694;2022-09-02T04:51:20;9.52;;;7.00;;
33844;SDS011;20145;43.118;25.694;2022-09-02T04:53:49;16.92;;;7.22;;
33844;SDS011;20145;43.118;25.694;2022-09-02T04:56:18;13.30;;;7.65;;
33844;SDS011;20145;43.118;25.694;2022-09-02T04:58:47;12.60;;;7.25;;
33844;SDS011;20145;43.118;25.694;2022-09-02T05:01:17;10.80;;;7.10;;
33844;SDS011;20145;43.118;25.694;2022-09-02T05:03:47;10.65;;;6.43;;
33844;SDS011;20145;43.118;25.694;2022-09-02T05:06:15;9.15;;;7.00;;
33844;SDS011;20145;43.118;25.694;2022-09-02T05:08:42;10.18;;;6.80;;
33844;SDS011;20145;43.118;25.694;2022-09-02T05:11:10;8.48;;;7.03;;
33844;SDS011;20145;43.118;25.694;2022-09-02T05:13:37;10.77;;;6.70;;
33844;SDS011;20145;43.118;25.694;2022-09-02T05:16:04;8.70;;;6.20;;
33844;SDS011;20145;43.118;25.694;2022-09-02T05:18:30;10.15;;;6.43;;
33844;SDS011;20145;43.118;25.694;2022-09-02T05:20:56;13.65;;;6.47;;
33844;SDS011;20145;43.118;25.694;2022-09-02T05:23:21;9.25;;;6.30;;
33844;SDS011;20145;43.118;25.694;2022-09-02T05:25:47;8.70;;;5.88;;
33844;SDS011;20145;43.118;25.694;2022-09-02T05:28:12;10.65;;;6.32;;
33844;SDS011;20145;43.118;25.694;2022-09-02T05:30:39;6.97;;;6.15;;
33844;SDS011;20145;43.118;25.694;2022-09-02T05:33:06;7.90;;;6.82;;
33844;SDS011;20145;43.118;25.694;2022-09-02T05:35:33;12.25;;;6.88;;
33844;SDS011;20145;43.118;25.694;2022-09-02T05:38:03;9.47;;;6.30;;
33844;SDS011;20145;43.118;25.694;2022-09-02T05:40:29;9.57;;;6.18;;
33844;SDS011;20145;43.118;25.694;2022-09-02T05:42:54;10.05;;;6.70;;
33844;SDS011;20145;43.118;25.694;2022-09-02T05:45:20;9.43;;;6.13;;
33844;SDS011;20145;43.118;25.694;2022-09-02T05:47:48;14.20;;;6.95;;
33844;SDS011;20145;43.118;25.694;2022-09-02T05:50:14;8.90;;;6.80;;
33844;SDS011;20145;43.118;25.694;2022-09-02T05:52:40;8.63;;;6.97;;
33844;SDS011;20145;43.118;25.694;2022-09-02T05:55:07;10.25;;;6.72;;
33844;SDS011;20145;43.118;25.694;2022-09-02T05:57:33;11.02;;;6.78;;
33844;SDS011;20145;43.118;25.694;2022-09-02T05:59:59;8.45;;;6.47;;
33844;SDS011;20145;43.118;25.694;2022-09-02T06:02:25;14.93;;;7.43;;
33844;SDS011;20145;43.118;25.694;2022-09-02T06:04:51;8.75;;;6.35;;
33844;SDS011;20145;43.118;25.694;2022-09-02T06:07:19;7.93;;;6.22;;
33844;SDS011;20145;43.118;25.694;2022-09-02T06:09:47;11.75;;;6.50;;
33844;SDS011;20145;43.118;25.694;2022-09-02T06:12:15;12.35;;;6.45;;
33844;SDS011;20145;43.118;25.694;2022-09-02T06:14:44;9.97;;;6.87;;
33844;SDS011;20145;43.118;25.694;2022-09-02T06:17:11;6.95;;;5.70;;
33844;SDS011;20145;43.118;25.694;2022-09-02T06:19:38;10.48;;;5.60;;
33844;SDS011;20145;43.118;25.694;2022-09-02T06:22:04;9.55;;;5.00;;
33844;SDS011;20145;43.118;25.694;2022-09-02T06:24:30;10.18;;;4.20;;
33844;SDS011;20145;43.118;25.694;2022-09-02T06:26:56;7.25;;;4.43;;
33844;SDS011;20145;43.118;25.694;2022-09-02T06:29:24;7.38;;;4.65;;
33844;SDS011;20145;43.118;25.694;2022-09-02T06:31:50;7.57;;;4.80;;
33844;SDS011;20145;43.118;25.694;2022-09-02T06:34:17;7.07;;;4.63;;
33844;SDS011;20145;43.118;25.694;2022-09-02T06:36:45;10.35;;;4.00;;
33844;SDS011;20145;43.118;25.694;2022-09-02T06:39:13;9.52;;;4.45;;
33844;SDS011;20145;43.118;25.694;2022-09-02T06:41:41;10.85;;;5.07;;
33844;SDS011;20145;43.118;25.694;2022-09-02T06:44:09;6.95;;;4.43;;
33844;SDS011;20145;43.118;25.694;2022-09-02T06:46:39;7.45;;;4.38;;
33844;SDS011;20145;43.118;25.694;2022-09-02T06:49:07;4.38;;;3.78;;
33844;SDS011;20145;43.118;25.694;2022-09-02T06:51:35;6.57;;;4.20;;
33844;SDS011;20145;43.118;25.694;2022-09-02T06:54:03;11.43;;;4.68;;
33844;SDS011;20145;43.118;25.694;2022-09-02T06:56:31;7.03;;;4.43;;
33844;SDS011;20145;43.118;25.694;2022-09-02T06:58:57;8.73;;;4.25;;
33844;SDS011;20145;43.118;25.694;2022-09-02T07:01:24;6.13;;;4.18;;
33844;SDS011;20145;43.118;25.694;2022-09-02T07:03:52;9.38;;;4.22;;
33844;SDS011;20145;43.118;25.694;2022-09-02T07:06:48;6.00;;;4.60;;
33844;SDS011;20145;43.118;25.694;2022-09-02T07:09:18;5.25;;;4.18;;
33844;SDS011;20145;43.118;25.694;2022-09-02T07:11:46;8.75;;;4.40;;
33844;SDS011;20145;43.118;25.694;2022-09-02T07:14:17;8.13;;;4.55;;
33844;SDS011;20145;43.118;25.694;2022-09-02T07:16:48;10.38;;;4.45;;
33844;SDS011;20145;43.118;25.694;2022-09-02T07:19:15;12.00;;;4.80;;
33844;SDS011;20145;43.118;25.694;2022-09-02T07:21:41;11.63;;;4.68;;
33844;SDS011;20145;43.118;25.694;2022-09-02T07:24:07;6.55;;;4.40;;
33844;SDS011;20145;43.118;25.694;2022-09-02T07:26:35;7.28;;;4.50;;
33844;SDS011;20145;43.118;25.694;2022-09-02T07:29:01;8.13;;;4.60;;
33844;SDS011;20145;43.118;25.694;2022-09-02T07:31:27;6.70;;;4.13;;
33844;SDS011;20145;43.118;25.694;2022-09-02T07:33:54;13.45;;;4.25;;
33844;SDS011;20145;43.118;25.694;2022-09-02T07:36:23;5.95;;;4.30;;
33844;SDS011;20145;43.118;25.694;2022-09-02T07:38:50;6.57;;;4.28;;
33844;SDS011;20145;43.118;25.694;2022-09-02T07:41:18;10.27;;;4.25;;
33844;SDS011;20145;43.118;25.694;2022-09-02T07:43:44;9.95;;;4.20;;
33844;SDS011;20145;43.118;25.694;2022-09-02T07:46:10;7.20;;;4.50;;
33844;SDS011;20145;43.118;25.694;2022-09-02T07:48:35;6.38;;;4.30;;
33844;SDS011;20145;43.118;25.694;2022-09-02T07:51:01;9.07;;;4.90;;
33844;SDS011;20145;43.118;25.694;2022-09-02T07:53:27;11.98;;;4.40;;
33844;SDS011;20145;43.118;25.694;2022-09-02T07:55:53;9.07;;;4.55;;
33844;SDS011;20145;43.118;25.694;2022-09-02T07:58:19;5.22;;;3.67;;
33844;SDS011;20145;43.118;25.694;2022-09-02T08:00:48;8.05;;;4.53;;
33844;SDS011;20145;43.118;25.694;2022-09-02T08:03:14;6.35;;;4.15;;
33844;SDS011;20145;43.118;25.694;2022-09-02T08:05:40;6.10;;;4.00;;
33844;SDS011;20145;43.118;25.694;2022-09-02T08:08:09;7.90;;;4.72;;
33844;SDS011;20145;43.118;25.694;2022-09-02T08:10:37;6.88;;;4.10;;
33844;SDS011;20145;43.118;25.694;2022-09-02T08:13:04;5.43;;;3.72;;
33844;SDS011;20145;43.118;25.694;2022-09-02T08:15:31;5.30;;;3.50;;
33844;SDS011;20145;43.118;25.694;2022-09-02T08:17:58;8.30;;;4.88;;
33844;SDS011;20145;43.118;25.694;2022-09-02T08:20:24;8.70;;;3.90;;
33844;SDS011;20145;43.118;25.694;2022-09-02T08:22:50;5.90;;;4.13;;
33844;SDS011;20145;43.118;25.694;2022-09-02T08:25:15;12.27;;;4.80;;
33844;SDS011;20145;43.118;25.694;2022-09-02T08:27:44;11.20;;;4.00;;
33844;SDS011;20145;43.118;25.694;2022-09-02T08:30:12;7.40;;;4.20;;
33844;SDS011;20145;43.118;25.694;2022-09-02T08:32:38;5.55;;;4.03;;
33844;SDS011;20145;43.118;25.694;2022-09-02T08:35:04;8.27;;;4.38;;
33844;SDS011;20145;43.118;25.694;2022-09-02T08:37:31;7.90;;;4.40;;
33844;SDS011;20145;43.118;25.694;2022-09-02T08:39:58;7.65;;;4.38;;
33844;SDS011;20145;43.118;25.694;2022-09-02T08:42:32;7.10;;;4.10;;
33844;SDS011;20145;43.118;25.694;2022-09-02T08:45:05;6.38;;;3.70;;
33844;SDS011;20145;43.118;25.694;2022-09-02T08:47:36;8.70;;;3.58;;
33844;SDS011;20145;43.118;25.694;2022-09-02T08:50:12;7.43;;;4.35;;
33844;SDS011;20145;43.118;25.694;2022-09-02T08:55:06;8.88;;;3.90;;
33844;SDS011;20145;43.118;25.694;2022-09-02T08:57:36;6.90;;;3.75;;
33844;SDS011;20145;43.118;25.694;2022-09-02T09:00:03;9.82;;;4.07;;
33844;SDS011;20145;43.118;25.694;2022-09-02T09:02:37;9.30;;;3.72;;
33844;SDS011;20145;43.118;25.694;2022-09-02T09:10:19;10.13;;;4.30;;
33844;SDS011;20145;43.118;25.694;2022-09-02T09:13:09;8.27;;;3.90;;
33844;SDS011;20145;43.118;25.694;2022-09-02T09:15:51;8.70;;;4.18;;
33844;SDS011;20145;43.118;25.694;2022-09-02T09:18:33;8.45;;;3.70;;
33844;SDS011;20145;43.118;25.694;2022-09-02T09:21:02;5.55;;;3.38;;
33844;SDS011;20145;43.118;25.694;2022-09-02T09:23:32;5.30;;;4.03;;
33844;SDS011;20145;43.118;25.694;2022-09-02T09:26:10;10.52;;;3.97;;
33844;SDS011;20145;43.118;25.694;2022-09-02T09:28:44;5.43;;;3.47;;
33844;SDS011;20145;43.118;25.694;2022-09-02T09:31:14;7.13;;;3.72;;
33844;SDS011;20145;43.118;25.694;2022-09-02T09:36:19;7.15;;;3.70;;
33844;SDS011;20145;43.118;25.694;2022-09-02T09:39:18;8.93;;;3.90;;
33844;SDS011;20145;43.118;25.694;2022-09-02T09:41:49;4.50;;;3.58;;
33844;SDS011;20145;43.118;25.694;2022-09-02T09:47:13;7.60;;;3.95;;
33844;SDS011;20145;43.118;25.694;2022-09-02T09:49:39;7.97;;;3.78;;
33844;SDS011;20145;43.118;25.694;2022-09-02T09:52:05;7.30;;;3.72;;
33844;SDS011;20145;43.118;25.694;2022-09-02T09:54:31;7.75;;;3.95;;
33844;SDS011;20145;43.118;25.694;2022-09-02T09:57:13;8.57;;;4.07;;
33844;SDS011;20145;43.118;25.694;2022-09-02T09:59:48;6.97;;;4.00;;
33844;SDS011;20145;43.118;25.694;2022-09-02T10:02:21;8.73;;;4.10;;
33844;SDS011;20145;43.118;25.694;2022-09-02T10:04:50;10.32;;;4.10;;
33844;SDS011;20145;43.118;25.694;2022-09-02T10:07:39;12.95;;;4.22;;
33844;SDS011;20145;43.118;25.694;2022-09-02T10:10:11;9.00;;;4.82;;
33844;SDS011;20145;43.118;25.694;2022-09-02T10:12:41;12.20;;;4.30;;
33844;SDS011;20145;43.118;25.694;2022-09-02T10:15:09;8.98;;;4.18;;
33844;SDS011;20145;43.118;25.694;2022-09-02T10:26:10;7.90;;;4.25;;
33844;SDS011;20145;43.118;25.694;2022-09-02T10:28:45;10.50;;;3.95;;
33844;SDS011;20145;43.118;25.694;2022-09-02T10:31:39;10.13;;;4.15;;
33844;SDS011;20145;43.118;25.694;2022-09-02T10:45:41;12.43;;;4.97;;
33844;SDS011;20145;43.118;25.694;2022-09-02T10:59:35;10.35;;;4.85;;
33844;SDS011;20145;43.118;25.694;2022-09-02T11:02:13;6.80;;;4.90;;
33844;SDS011;20145;43.118;25.694;2022-09-02T11:04:49;8.50;;;4.90;;
33844;SDS011;20145;43.118;25.694;2022-09-02T11:07:29;8.93;;;5.57;;
33844;SDS011;20145;43.118;25.694;2022-09-02T11:10:17;12.07;;;5.55;;
33844;SDS011;20145;43.118;25.694;2022-09-02T11:12:49;8.75;;;5.38;;
33844;SDS011;20145;43.118;25.694;2022-09-02T11:18:20;10.05;;;6.43;;
33844;SDS011;20145;43.118;25.694;2022-09-02T11:24:08;12.98;;;6.93;;
33844;SDS011;20145;43.118;25.694;2022-09-02T11:29:21;9.07;;;6.07;;
33844;SDS011;20145;43.118;25.694;2022-09-02T11:35:36;10.50;;;6.85;;
33844;SDS011;20145;43.118;25.694;2022-09-02T11:44:26;9.70;;;6.60;;
33844;SDS011;20145;43.118;25.694;2022-09-02T11:54:34;10.90;;;7.45;;
33844;SDS011;20145;43.118;25.694;2022-09-02T11:57:06;12.45;;;6.70;;
33844;SDS011;20145;43.118;25.694;2022-09-02T12:02:33;8.50;;;6.85;;
33844;SDS011;20145;43.118;25.694;2022-09-02T12:07:59;7.70;;;6.90;;
33844;SDS011;20145;43.118;25.694;2022-09-02T12:13:52;11.43;;;7.47;;
33844;SDS011;20145;43.118;25.694;2022-09-02T12:21:35;9.77;;;7.30;;
33844;SDS011;20145;43.118;25.694;2022-09-02T12:24:21;13.07;;;7.60;;
33844;SDS011;20145;43.118;25.694;2022-09-02T12:31:43;13.35;;;8.38;;
33844;SDS011;20145;43.118;25.694;2022-09-02T12:36:48;11.02;;;9.05;;
33844;SDS011;20145;43.118;25.694;2022-09-02T12:47:59;12.65;;;10.23;;
33844;SDS011;20145;43.118;25.694;2022-09-02T12:50:49;12.82;;;9.52;;
33844;SDS011;20145;43.118;25.694;2022-09-02T12:56:05;13.63;;;9.82;;
33844;SDS011;20145;43.118;25.694;2022-09-02T12:58:44;11.50;;;9.40;;
33844;SDS011;20145;43.118;25.694;2022-09-02T13:07:06;12.27;;;9.63;;
33844;SDS011;20145;43.118;25.694;2022-09-02T13:32:30;14.75;;;10.68;;
33844;SDS011;20145;43.118;25.694;2022-09-02T13:35:01;17.83;;;11.32;;
33844;SDS011;20145;43.118;25.694;2022-09-02T13:37:31;17.00;;;10.60;;
33844;SDS011;20145;43.118;25.694;2022-09-02T13:40:00;20.83;;;9.82;;
33844;SDS011;20145;43.118;25.694;2022-09-02T13:45:12;10.63;;;9.40;;
33844;SDS011;20145;43.118;25.694;2022-09-02T13:47:45;11.27;;;8.15;;
33844;SDS011;20145;43.118;25.694;2022-09-02T13:50:14;15.88;;;8.90;;
33844;SDS011;20145;43.118;25.694;2022-09-02T13:52:44;10.38;;;9.20;;
33844;SDS011;20145;43.118;25.694;2022-09-02T13:55:12;13.32;;;9.02;;
33844;SDS011;20145;43.118;25.694;2022-09-02T13:57:42;14.23;;;9.65;;
33844;SDS011;20145;43.118;25.694;2022-09-02T14:00:34;11.43;;;9.98;;
33844;SDS011;20145;43.118;25.694;2022-09-02T14:03:12;14.63;;;9.55;;
33844;SDS011;20145;43.118;25.694;2022-09-02T14:05:45;15.10;;;9.52;;
33844;SDS011;20145;43.118;25.694;2022-09-02T14:08:18;10.43;;;8.05;;
33844;SDS011;20145;43.118;25.694;2022-09-02T14:10:46;11.65;;;8.88;;
33844;SDS011;20145;43.118;25.694;2022-09-02T14:13:15;11.15;;;8.77;;
33844;SDS011;20145;43.118;25.694;2022-09-02T14:15:41;9.68;;;7.90;;
33844;SDS011;20145;43.118;25.694;2022-09-02T14:18:08;11.52;;;9.27;;
33844;SDS011;20145;43.118;25.694;2022-09-02T14:23:46;12.70;;;10.27;;
33844;SDS011;20145;43.118;25.694;2022-09-02T14:28:58;12.15;;;9.50;;
33844;SDS011;20145;43.118;25.694;2022-09-02T14:31:25;12.65;;;9.93;;
33844;SDS011;20145;43.118;25.694;2022-09-02T14:33:54;11.70;;;6.90;;
33844;SDS011;20145;43.118;25.694;2022-09-02T14:39:08;7.47;;;5.35;;
33844;SDS011;20145;43.118;25.694;2022-09-02T14:41:36;8.75;;;5.90;;
33844;SDS011;20145;43.118;25.694;2022-09-02T14:44:17;13.32;;;11.65;;
33844;SDS011;20145;43.118;25.694;2022-09-02T14:46:52;8.30;;;5.65;;
33844;SDS011;20145;43.118;25.694;2022-09-02T14:52:02;6.53;;;4.75;;
33844;SDS011;20145;43.118;25.694;2022-09-02T14:59:57;8.23;;;5.88;;
33844;SDS011;20145;43.118;25.694;2022-09-02T15:04:55;8.02;;;4.90;;
33844;SDS011;20145;43.118;25.694;2022-09-02T15:07:25;10.90;;;6.35;;
33844;SDS011;20145;43.118;25.694;2022-09-02T15:09:51;9.23;;;6.07;;
33844;SDS011;20145;43.118;25.694;2022-09-02T15:12:18;7.70;;;5.15;;
33844;SDS011;20145;43.118;25.694;2022-09-02T15:14:51;5.32;;;4.63;;
33844;SDS011;20145;43.118;25.694;2022-09-02T15:17:17;8.32;;;5.82;;
33844;SDS011;20145;43.118;25.694;2022-09-02T15:19:44;9.80;;;5.93;;
33844;SDS011;20145;43.118;25.694;2022-09-02T15:22:09;8.68;;;5.78;;
33844;SDS011;20145;43.118;25.694;2022-09-02T15:24:35;8.43;;;5.80;;
33844;SDS011;20145;43.118;25.694;2022-09-02T15:27:01;7.28;;;5.18;;
33844;SDS011;20145;43.118;25.694;2022-09-02T15:29:27;7.25;;;5.03;;
33844;SDS011;20145;43.118;25.694;2022-09-02T15:31:53;8.50;;;5.03;;
33844;SDS011;20145;43.118;25.694;2022-09-02T15:34:21;7.63;;;4.93;;
33844;SDS011;20145;43.118;25.694;2022-09-02T15:36:47;8.23;;;5.35;;
33844;SDS011;20145;43.118;25.694;2022-09-02T15:39:13;6.07;;;5.47;;
33844;SDS011;20145;43.118;25.694;2022-09-02T15:41:41;9.73;;;6.45;;
33844;SDS011;20145;43.118;25.694;2022-09-02T15:44:07;10.30;;;5.78;;
33844;SDS011;20145;43.118;25.694;2022-09-02T15:46:33;9.57;;;6.25;;
33844;SDS011;20145;43.118;25.694;2022-09-02T15:49:02;12.40;;;7.03;;
33844;SDS011;20145;43.118;25.694;2022-09-02T15:51:30;10.63;;;6.78;;
33844;SDS011;20145;43.118;25.694;2022-09-02T15:53:58;9.68;;;6.47;;
33844;SDS011;20145;43.118;25.694;2022-09-02T15:56:26;12.27;;;7.30;;
33844;SDS011;20145;43.118;25.694;2022-09-02T15:58:54;9.50;;;6.68;;
33844;SDS011;20145;43.118;25.694;2022-09-02T16:01:28;7.28;;;6.38;;
33844;SDS011;20145;43.118;25.694;2022-09-02T16:03:58;11.07;;;7.03;;
33844;SDS011;20145;43.118;25.694;2022-09-02T16:06:28;14.40;;;10.88;;
33844;SDS011;20145;43.118;25.694;2022-09-02T16:08:55;19.15;;;9.05;;
33844;SDS011;20145;43.118;25.694;2022-09-02T16:11:20;9.05;;;8.13;;
33844;SDS011;20145;43.118;25.694;2022-09-02T16:13:47;11.15;;;7.65;;
33844;SDS011;20145;43.118;25.694;2022-09-02T16:16:13;9.20;;;7.05;;
33844;SDS011;20145;43.118;25.694;2022-09-02T16:18:39;13.75;;;7.00;;
33844;SDS011;20145;43.118;25.694;2022-09-02T16:21:07;8.55;;;6.95;;
33844;SDS011;20145;43.118;25.694;2022-09-02T16:23:34;11.80;;;7.10;;
33844;SDS011;20145;43.118;25.694;2022-09-02T16:28:50;7.80;;;6.00;;
33844;SDS011;20145;43.118;25.694;2022-09-02T16:31:18;8.00;;;5.65;;
33844;SDS011;20145;43.118;25.694;2022-09-02T16:33:55;10.60;;;6.15;;
33844;SDS011;20145;43.118;25.694;2022-09-02T16:36:23;10.40;;;6.05;;
33844;SDS011;20145;43.118;25.694;2022-09-02T16:38:50;9.80;;;6.10;;
33844;SDS011;20145;43.118;25.694;2022-09-02T16:44:02;10.80;;;6.05;;
33844;SDS011;20145;43.118;25.694;2022-09-02T16:46:30;12.20;;;9.95;;
33844;SDS011;20145;43.118;25.694;2022-09-02T16:48:56;18.73;;;11.00;;
33844;SDS011;20145;43.118;25.694;2022-09-02T16:51:22;16.13;;;10.35;;
33844;SDS011;20145;43.118;25.694;2022-09-02T16:53:56;13.48;;;10.10;;
33844;SDS011;20145;43.118;25.694;2022-09-02T16:56:23;14.57;;;10.77;;
33844;SDS011;20145;43.118;25.694;2022-09-02T16:58:50;13.70;;;8.40;;
33844;SDS011;20145;43.118;25.694;2022-09-02T17:01:17;10.43;;;7.72;;
33844;SDS011;20145;43.118;25.694;2022-09-02T17:03:44;11.82;;;10.63;;
33844;SDS011;20145;43.118;25.694;2022-09-02T17:06:10;13.43;;;10.38;;
33844;SDS011;20145;43.118;25.694;2022-09-02T17:08:36;11.77;;;8.93;;
33844;SDS011;20145;43.118;25.694;2022-09-02T17:11:21;11.68;;;9.55;;
33844;SDS011;20145;43.118;25.694;2022-09-02T17:13:53;11.15;;;9.10;;
33844;SDS011;20145;43.118;25.694;2022-09-02T17:16:20;12.23;;;9.25;;
33844;SDS011;20145;43.118;25.694;2022-09-02T17:18:48;11.38;;;9.75;;
33844;SDS011;20145;43.118;25.694;2022-09-02T17:23:41;13.18;;;9.32;;